首页
METAR-TAF:

METAR-TAF

机场 :

羅馬-菲烏米奇諾機場

罗马菲乌米奇诺, 意大利

纬度: 41-48N, 经度: 012-14E, 海拔: 2米

当前天气观测

该预报发布于32分钟前的17:20 UTC
风速8节,风向西转西南
温度 14°C
湿度 67%
气压 1013 hPa
能见度10公里或以上
少量云层高于3000英尺
散云层高于5000英尺

METAR: LIRF 201720Z 24008KT 9999 FEW030 SCT050 14/08 Q1013 NOSIG

时间: 18:52 (17:52 UTC)

预报

该预报发布于52分钟前的17:00 UTC
预报有效从20日的 18点(UTC)到 21日的 24点(UTC)
风速10节,风向南转西南
能见度10公里或以上
散云层高于2000英尺
散云层高于5000英尺
成为
从 20日的 19点(UTC)到 20日的 21点(UTC)
风速5节,风向多变
成为
从 21日的 03点(UTC)到 21日的 06点(UTC)
风速10节,风向南转南东
短暂存在
从 21日的 03点(UTC)到 21日的 16点(UTC)
成为
从 21日的 21点(UTC)到 21日的 24点(UTC)
能見度: 4000
多云层高于1400英尺
多云层高于3000英尺
阵雨

TAF: LIRF 201700Z 2018/2124 21010KT 9999 SCT020 SCT050 BECMG 2019/2021 VRB05KT BECMG 2103/2106 15010KT TEMPO 2103/2116 RA BECMG 2121/2124 4000 SHRA BKN014 BKN030

超过4000个机场的气象观测和天气预报(METAR&TAF报告)。

可查询的气象台以黄色和红色小点在地图上表示。

将鼠标移到小点上方,可查看气象台名称。

然后点击查看天气观测和预报。

如需切换地图:点击带黑十字的绿色按钮放大地图;点击带横线的绿色按钮缩小地图;或者点击绿色箭头查看邻近地区的地图。


METAR-TAF: